Liberty, SC

11:21 PM EDT on September 29, 2016 (GMT -0400)
Pickens County

Weather History for KLQK - January, 2014

Change the Weather History Date:

Sunday, January 12, 2014

  Actual Average Record
Temperature  
Mean Temperature 44 °F -  
Max Temperature 59 °F 48 °F 85 °F (2016)
Min Temperature 31 °F 26 °F 25 °F (2016)
Degree Days  
Heating Degree Days 20    
Moisture  
Dew Point 34 °F    
Average Humidity 68    
Maximum Humidity 100    
Minimum Humidity 40    
Precipitation  
Precipitation 0.00 in - - ()
Sea Level Pressure  
Sea Level Pressure 30.06 in    
Wind  
Wind Speed - (North)    
Max Wind Speed -    
Max Gust Speed -    
Visibility 10 miles    
Events      
Averages and records for this station are not official NWS values.
T = Trace of Precipitation, MM = Missing Value Source: NWS Daily Summary

Daily Weather History Graph

Daily Weather History Graph

Search for Another Location

Airport or City:

Trip Planner

Search our weather history database for the weather conditions in past years. The results will help you decide how hot, cold, wet, or windy it might be!

Date:

Astronomy

Jan. 12, 2014 Rise Set
Actual Time 7:38 AM EST 5:40 PM EST
Civil Twilight 7:10 AM EST 6:07 PM EST
Nautical Twilight 6:39 AM EST 6:38 PM EST
Astronomical Twilight 6:09 AM EST 7:09 PM EST
Moon 3:06 PM EST (1/12) 4:37 AM EST (1/12)
Length of Visible Light 10h 56m
Length of Day
10h 01m
Waxing Gibbous, 89% of the Moon is Illuminated
Jan 12
Waxing Gibbous
Jan 15
Full
Jan 24
Last Quarter
Jan 30
New
Feb 6
First Quarter

Hourly Weather History & Observations

Time (EST) Temp. Dew Point Humidity Pressure Visibility Wind Dir Wind Speed Gust Speed Precip Events Conditions
12:15 AM 46.8 °F 36.7 °F 68% 29.85 in 10.0 mi North - - N/A   Clear
12:35 AM 46.2 °F 36.1 °F 68% 29.84 in 10.0 mi North - - N/A   Clear
12:55 AM 46.4 °F 34.7 °F 64% 29.85 in 10.0 mi North - - N/A   Clear
1:15 AM 45.7 °F 34.2 °F 64% 29.86 in 10.0 mi North - - N/A   Clear
1:35 AM 45.0 °F 33.4 °F 64% 29.86 in 10.0 mi North - - N/A   Clear
1:55 AM 45.1 °F 32.7 °F 62% 29.87 in 10.0 mi North - - N/A   Clear
2:15 AM 45.1 °F 32.2 °F 60% 29.88 in 10.0 mi North - - N/A   Clear
2:35 AM 44.6 °F 32.0 °F 61% 29.89 in 10.0 mi North - - N/A   Clear
2:55 AM 44.4 °F 32.0 °F 62% 29.91 in 10.0 mi North - - N/A   Clear
3:15 AM 44.2 °F 32.0 °F 62% 29.91 in 10.0 mi North - - N/A   Clear
3:35 AM 43.7 °F 32.0 °F 63% 29.92 in 10.0 mi North - - N/A   Clear
3:55 AM 43.2 °F 31.8 °F 64% 29.93 in 10.0 mi North - - N/A   Clear
4:15 AM 41.7 °F 32.4 °F 69% 29.93 in 10.0 mi North - - N/A   Clear
4:35 AM 40.8 °F 32.9 °F 73% 29.94 in 10.0 mi North - - N/A   Clear
4:55 AM 39.7 °F 32.9 °F 77% 29.95 in 10.0 mi North - - N/A   Clear
5:15 AM 38.5 °F 32.9 °F 80% 29.95 in 10.0 mi North - - N/A   Clear
5:35 AM 38.1 °F 32.4 °F 80% 29.96 in 10.0 mi North - - N/A   Clear
5:55 AM 39.4 °F 31.6 °F 74% 29.96 in 10.0 mi North - - N/A   Clear
6:15 AM 36.9 °F 31.5 °F 81% 29.97 in 10.0 mi North - - N/A   Clear
6:35 AM 35.4 °F 32.2 °F 88% 29.97 in 10.0 mi North - - N/A   Clear
6:55 AM 36.0 °F 31.8 °F 85% 29.98 in 10.0 mi North - - N/A   Clear
7:15 AM 34.0 °F 32.4 °F 94% 30.00 in 10.0 mi North - - N/A   Clear
7:35 AM 37.2 °F 32.4 °F 83% 30.01 in 10.0 mi North - - N/A   Clear
7:55 AM 35.6 °F 32.2 °F 87% 30.03 in 10.0 mi North - - N/A   Clear
8:15 AM 36.5 °F 32.7 °F 86% 30.04 in 10.0 mi North - - N/A   Clear
8:35 AM 39.2 °F 33.3 °F 79% 30.05 in 10.0 mi North - - N/A   Clear
8:55 AM 41.4 °F 33.3 °F 73% 30.07 in 10.0 mi North - - N/A   Clear
9:15 AM 42.8 °F 34.0 °F 71% 30.09 in 10.0 mi North - - N/A   Clear
9:35 AM 44.6 °F 34.9 °F 69% 30.10 in 10.0 mi North - - N/A   Clear
9:55 AM 46.4 °F 35.6 °F 66% 30.11 in 10.0 mi North - - N/A   Clear
10:15 AM 47.8 °F 35.4 °F 62% 30.11 in 10.0 mi North - - N/A   Clear
10:35 AM 49.5 °F 36.3 °F 61% 30.12 in 10.0 mi North - - N/A   Clear
10:55 AM 50.5 °F 36.3 °F 58% 30.13 in 10.0 mi North - - N/A   Clear
11:15 AM 52.0 °F 36.0 °F 54% 30.13 in 10.0 mi North - - N/A   Clear
11:35 AM 52.7 °F 34.9 °F 51% 30.12 in 10.0 mi North - - N/A   Clear
11:55 AM 53.6 °F 34.2 °F 48% 30.12 in 10.0 mi North - - N/A   Clear
12:15 PM 54.1 °F 34.0 °F 47% 30.11 in 10.0 mi North - - N/A   Clear
12:35 PM 55.2 °F 33.4 °F 44% 30.11 in 10.0 mi North - - N/A   Clear
12:55 PM 55.2 °F 33.3 °F 43% 30.11 in 10.0 mi North - - N/A   Clear
1:15 PM 55.6 °F 32.7 °F 42% 30.10 in 10.0 mi North - - N/A   Clear
1:35 PM 55.9 °F 32.7 °F 41% 30.10 in 10.0 mi North - - N/A   Clear
1:55 PM 56.7 °F 32.5 °F 40% 30.10 in 10.0 mi North - - N/A   Clear
2:15 PM 57.0 °F 32.9 °F 40% 30.09 in 10.0 mi North - - N/A   Clear
2:35 PM 57.4 °F 33.6 °F 41% 30.09 in 10.0 mi North - - N/A   Clear
2:55 PM 57.6 °F 33.6 °F 41% 30.10 in 10.0 mi North - - N/A   Clear
3:15 PM 57.6 °F 34.2 °F 41% 30.10 in 10.0 mi North - - N/A   Clear
3:35 PM 57.2 °F 34.5 °F 43% 30.10 in 10.0 mi North - - N/A   Clear
3:55 PM 57.4 °F 34.5 °F 42% 30.11 in 10.0 mi North - - N/A   Clear
4:15 PM 56.8 °F 33.8 °F 42% 30.11 in 10.0 mi North - - N/A   Clear
4:35 PM 56.5 °F 34.2 °F 43% 30.11 in 10.0 mi North - - N/A   Clear
4:55 PM 55.8 °F 34.5 °F 45% 30.11 in 10.0 mi North - - N/A   Clear
5:15 PM 54.7 °F 34.5 °F 47% 30.11 in 10.0 mi North - - N/A   Clear
5:35 PM 53.4 °F 34.5 °F 49% 30.12 in 10.0 mi North - - N/A   Clear
5:55 PM 51.6 °F 34.7 °F 52% 30.13 in 10.0 mi North - - N/A   Clear
6:15 PM 50.4 °F 34.9 °F 55% 30.14 in 10.0 mi North - - N/A   Clear
6:35 PM 48.4 °F 35.1 °F 60% 30.14 in 10.0 mi North - - N/A   Clear
6:55 PM 44.6 °F 36.5 °F 73% 30.15 in 10.0 mi North - - N/A   Clear
7:15 PM 43.5 °F 36.3 °F 76% 30.15 in 10.0 mi North - - N/A   Clear
7:35 PM 40.8 °F 36.5 °F 85% 30.15 in 10.0 mi North - - N/A   Clear
7:55 PM 40.1 °F 36.3 °F 86% 30.16 in 10.0 mi North - - N/A   Clear
8:15 PM 39.4 °F 36.1 °F 88% 30.16 in 10.0 mi North - - N/A   Clear
8:35 PM 38.3 °F 36.1 °F 92% 30.16 in 10.0 mi North - - N/A   Clear
8:55 PM 37.6 °F 36.1 °F 95% 30.16 in 10.0 mi North - - N/A   Clear
9:15 PM 36.0 °F 35.2 °F 97% 30.16 in 10.0 mi North - - N/A   Clear
9:35 PM 35.6 °F 35.2 °F 99% 30.16 in 10.0 mi North - - N/A   Clear
9:55 PM - - N/A% 30.16 in 10.0 mi North - - N/A   Clear
10:15 PM 33.6 °F 33.8 °F 100% 30.16 in 10.0 mi North - - N/A   Clear
10:35 PM 33.4 °F 33.4 °F 100% 30.16 in 10.0 mi North - - N/A   Clear
10:55 PM 32.9 °F 32.9 °F 100% 30.16 in 10.0 mi North - - N/A   Clear
11:15 PM 32.5 °F 32.5 °F 100% 30.16 in 10.0 mi North - - N/A   Clear
11:35 PM 32.4 °F 32.4 °F 100% 30.15 in 10.0 mi North - - N/A   Clear
11:55 PM 31.8 °F 32.0 °F 100% 30.15 in 10.0 mi North - - N/A   Clear